createdAt,value
2023-04-23T00:02:01.930Z,12.67
2023-04-23T00:04:28.259Z,12.69
2023-04-23T00:06:54.589Z,12.70
2023-04-23T00:09:20.854Z,12.59
2023-04-23T00:11:47.094Z,12.40
2023-04-23T00:14:13.360Z,12.27
2023-04-23T00:16:39.664Z,12.13
2023-04-23T00:19:05.944Z,12.16
2023-04-23T00:21:32.196Z,12.22
2023-04-23T00:23:58.488Z,12.26
2023-04-23T00:26:24.829Z,12.30
2023-04-23T00:28:51.088Z,12.42
2023-04-23T00:31:17.449Z,12.32
2023-04-23T00:33:43.850Z,12.32
2023-04-23T00:36:10.095Z,12.26
2023-04-23T00:38:36.338Z,12.30
2023-04-23T00:41:02.572Z,12.23
2023-04-23T00:43:28.847Z,12.23
2023-04-23T00:45:55.104Z,12.30
2023-04-23T00:48:21.367Z,12.35
2023-04-23T00:50:47.704Z,12.50
2023-04-23T00:53:13.950Z,12.55
2023-04-23T00:55:40.204Z,12.59
2023-04-23T00:58:06.437Z,11.81
2023-04-23T01:00:32.709Z,11.19
2023-04-23T01:02:59.120Z,10.40
2023-04-23T01:05:25.619Z,10.47
2023-04-23T01:07:51.893Z,10.70
2023-04-23T01:10:18.172Z,10.85
2023-04-23T01:12:44.438Z,10.84
2023-04-23T01:15:10.762Z,10.97
2023-04-23T01:17:37.058Z,11.10
2023-04-23T01:20:03.363Z,11.21
2023-04-23T01:22:29.676Z,10.97
2023-04-23T01:24:55.904Z,11.10
2023-04-23T01:27:22.238Z,11.19
2023-04-23T01:29:48.566Z,11.25
2023-04-23T01:32:14.857Z,11.29
2023-04-23T01:34:41.301Z,11.29
2023-04-23T01:37:07.731Z,11.34
2023-04-23T01:39:34.021Z,11.35
2023-04-23T01:42:00.299Z,11.33
2023-04-23T01:44:26.759Z,11.31
2023-04-23T01:46:53.050Z,11.30
2023-04-23T01:49:19.336Z,11.29
2023-04-23T01:51:45.585Z,11.31
2023-04-23T01:54:11.868Z,11.30
2023-04-23T01:56:38.105Z,11.29
2023-04-23T01:59:04.357Z,11.28
2023-04-23T02:01:30.693Z,11.31
2023-04-23T02:03:57.005Z,11.24
2023-04-23T02:06:23.339Z,11.24
2023-04-23T02:08:49.610Z,11.12
2023-04-23T02:11:16.184Z,11.16
2023-04-23T02:13:42.438Z,11.13
2023-04-23T02:16:08.804Z,11.08
2023-04-23T02:18:35.061Z,11.13
2023-04-23T02:21:01.324Z,11.13
2023-04-23T02:23:27.582Z,11.14
2023-04-23T02:25:53.811Z,11.09
2023-04-23T02:28:20.051Z,11.12
2023-04-23T02:30:46.284Z,11.17
2023-04-23T02:33:12.521Z,11.16
2023-04-23T02:35:38.927Z,11.09
2023-04-23T02:38:05.178Z,10.87
2023-04-23T02:40:31.432Z,10.63
2023-04-23T02:42:57.681Z,10.67
2023-04-23T02:45:23.920Z,10.79
2023-04-23T02:47:50.334Z,10.88
2023-04-23T02:50:16.710Z,10.96
2023-04-23T02:52:42.970Z,10.96
2023-04-23T02:55:09.208Z,10.95
2023-04-23T02:57:35.466Z,10.94
2023-04-23T03:00:01.696Z,10.97
2023-04-23T03:02:28.090Z,10.96
2023-04-23T03:04:54.446Z,10.99
2023-04-23T03:07:20.713Z,10.95
2023-04-23T03:09:46.953Z,10.87
2023-04-23T03:12:13.199Z,10.89
2023-04-23T03:14:39.605Z,10.90
2023-04-23T03:17:06.006Z,10.94
2023-04-23T03:19:32.317Z,10.95
2023-04-23T03:21:58.564Z,10.98
2023-04-23T03:24:24.841Z,10.98
2023-04-23T03:26:51.114Z,10.85
2023-04-23T03:29:17.386Z,10.81
2023-04-23T03:31:43.630Z,10.78
2023-04-23T03:34:09.886Z,10.67
2023-04-23T03:36:36.153Z,10.65
2023-04-23T03:39:02.395Z,10.50
2023-04-23T03:41:28.665Z,10.45
2023-04-23T03:43:54.900Z,10.40
2023-04-23T03:46:21.147Z,10.47
2023-04-23T03:48:47.451Z,10.48
2023-04-23T03:51:13.743Z,10.46
2023-04-23T03:53:39.994Z,10.48
2023-04-23T03:56:06.233Z,10.52
2023-04-23T03:58:32.479Z,10.56
2023-04-23T04:00:58.712Z,10.63
2023-04-23T04:03:25.194Z,10.58
2023-04-23T04:05:51.643Z,10.56
2023-04-23T04:08:18.013Z,10.62
2023-04-23T04:10:44.279Z,10.69
2023-04-23T04:13:10.535Z,10.58
2023-04-23T04:15:36.793Z,10.13
2023-04-23T04:18:03.060Z,10.17
2023-04-23T04:20:29.397Z,10.17
2023-04-23T04:22:55.657Z,9.88
2023-04-23T04:25:21.910Z,9.98
2023-04-23T04:27:48.153Z,9.78
2023-04-23T04:30:14.386Z,9.94
2023-04-23T04:32:40.708Z,10.06
2023-04-23T04:35:07.020Z,10.14
2023-04-23T04:37:33.306Z,10.15
2023-04-23T04:39:59.616Z,10.17
2023-04-23T04:42:25.858Z,10.23
2023-04-23T04:44:52.114Z,10.31
2023-04-23T04:47:18.390Z,10.26
2023-04-23T04:49:44.665Z,10.22
2023-04-23T04:52:10.916Z,10.26
2023-04-23T04:54:37.191Z,10.06
2023-04-23T04:57:03.439Z,9.97
2023-04-23T04:59:29.732Z,9.90
2023-04-23T05:01:56.094Z,9.94
2023-04-23T05:04:22.407Z,10.06
2023-04-23T05:06:48.674Z,10.13
2023-04-23T05:09:14.900Z,10.08
2023-04-23T05:11:41.152Z,10.02
2023-04-23T05:14:07.446Z,10.05
2023-04-23T05:16:33.744Z,10.14
2023-04-23T05:19:00.034Z,10.15
2023-04-23T05:21:26.324Z,10.23
2023-04-23T05:23:52.556Z,10.27
2023-04-23T05:26:18.809Z,10.31
2023-04-23T05:28:45.061Z,10.35
2023-04-23T05:31:11.313Z,10.37
2023-04-23T05:33:48.715Z,10.35
2023-04-23T05:36:15.923Z,10.37
2023-04-23T05:38:42.188Z,10.42
2023-04-23T05:41:08.504Z,10.50
2023-04-23T05:43:34.778Z,10.58
2023-04-23T05:46:01.102Z,10.67
2023-04-23T05:48:27.447Z,10.49
2023-04-23T05:50:53.702Z,10.54
2023-04-23T05:53:19.962Z,10.54
2023-04-23T05:55:46.220Z,10.57
2023-04-23T05:58:12.508Z,10.62
2023-04-23T06:00:38.787Z,10.69
2023-04-23T06:03:05.162Z,10.76
2023-04-23T06:05:31.507Z,10.77
2023-04-23T06:07:57.822Z,10.81
2023-04-23T06:10:24.205Z,10.87
2023-04-23T06:12:50.748Z,10.93
2023-04-23T06:15:16.981Z,10.97
2023-04-23T06:17:43.289Z,11.01
2023-04-23T06:20:09.594Z,11.06
2023-04-23T06:22:35.822Z,11.15
2023-04-23T06:25:02.106Z,11.19
2023-04-23T06:27:28.359Z,11.22
2023-04-23T06:29:54.607Z,11.22
2023-04-23T06:32:20.903Z,11.20
2023-04-23T06:34:59.685Z,11.25
2023-04-23T06:37:29.330Z,11.32
2023-04-23T06:39:56.147Z,11.39
2023-04-23T06:42:22.408Z,11.46
2023-04-23T06:44:48.690Z,11.47
2023-04-23T06:47:15.029Z,11.37
2023-04-23T06:49:41.287Z,11.40
2023-04-23T06:52:07.584Z,11.42
2023-04-23T06:54:33.891Z,11.43
2023-04-23T06:57:00.109Z,11.59
2023-04-23T06:59:26.397Z,11.75
2023-04-23T07:01:52.691Z,11.92
2023-04-23T07:04:18.993Z,12.03
2023-04-23T07:06:45.296Z,12.21
2023-04-23T07:09:11.593Z,12.39
2023-04-23T07:11:37.831Z,12.58
2023-04-23T07:14:04.088Z,12.68
2023-04-23T07:16:30.373Z,12.94
2023-04-23T07:18:56.621Z,13.20
2023-04-23T07:21:22.933Z,13.49
2023-04-23T07:23:49.194Z,13.73
2023-04-23T07:26:15.447Z,13.99
2023-04-23T07:28:41.743Z,14.31
2023-04-23T07:31:08.004Z,14.53
2023-04-23T07:33:34.305Z,14.59
2023-04-23T07:36:00.609Z,14.82
2023-04-23T07:38:26.863Z,14.91
2023-04-23T07:40:53.176Z,15.00
2023-04-23T07:43:19.470Z,15.12
2023-04-23T07:45:45.726Z,15.18
2023-04-23T07:48:12.033Z,15.06
2023-04-23T07:50:38.334Z,15.16
2023-04-23T07:53:04.586Z,15.23
2023-04-23T07:55:30.874Z,15.31
2023-04-23T07:57:57.137Z,15.28
2023-04-23T08:00:23.413Z,15.32
2023-04-23T08:02:49.749Z,15.19
2023-04-23T08:05:16.201Z,15.17
2023-04-23T08:07:42.473Z,14.60
2023-04-23T08:10:08.773Z,14.28
2023-04-23T08:12:35.074Z,14.60
2023-04-23T08:15:01.327Z,14.79
2023-04-23T08:17:27.636Z,15.01
2023-04-23T08:19:53.949Z,15.12
2023-04-23T08:22:22.381Z,15.19
2023-04-23T08:24:48.667Z,15.34
2023-04-23T08:27:15.000Z,15.60
2023-04-23T08:29:41.493Z,15.29
2023-04-23T08:32:07.970Z,15.44
2023-04-23T08:34:35.796Z,15.70
2023-04-23T08:37:02.208Z,15.82
2023-04-23T08:39:28.494Z,15.99
2023-04-23T08:41:54.748Z,16.01
2023-04-23T08:44:21.032Z,16.09
2023-04-23T08:46:47.410Z,15.72
2023-04-23T08:49:13.708Z,15.50
2023-04-23T08:51:39.955Z,15.44
2023-04-23T08:54:06.234Z,15.58
2023-04-23T08:56:32.554Z,15.59
2023-04-23T08:58:58.797Z,15.59
2023-04-23T09:01:25.310Z,15.50
2023-04-23T09:03:51.910Z,15.52
2023-04-23T09:06:18.238Z,15.51
2023-04-23T09:08:44.461Z,15.57
2023-04-23T09:11:10.691Z,15.67
2023-04-23T09:13:36.941Z,15.72
2023-04-23T09:16:03.240Z,15.75
2023-04-23T09:18:29.495Z,15.77
2023-04-23T09:20:55.773Z,15.75
2023-04-23T09:23:22.018Z,15.75
2023-04-23T09:25:48.258Z,15.47
2023-04-23T09:28:14.489Z,15.54
2023-04-23T09:30:40.775Z,15.62
2023-04-23T09:33:07.138Z,15.02
2023-04-23T09:35:33.459Z,14.09
2023-04-23T09:38:01.437Z,14.12
2023-04-23T09:40:27.739Z,14.24
2023-04-23T09:42:53.988Z,14.35
2023-04-23T09:45:20.339Z,14.69
2023-04-23T09:47:46.628Z,14.82
2023-04-23T09:50:12.917Z,14.56
2023-04-23T09:52:39.152Z,14.93
2023-04-23T09:55:05.403Z,15.25
2023-04-23T09:57:31.660Z,15.35
2023-04-23T10:00:07.384Z,15.70
2023-04-23T10:02:40.405Z,16.00
2023-04-23T10:05:14.576Z,16.40
2023-04-23T10:07:48.574Z,16.27
2023-04-23T10:10:14.808Z,15.97
2023-04-23T10:12:53.678Z,16.06
2023-04-23T10:15:21.380Z,16.46
2023-04-23T10:17:47.667Z,16.28
2023-04-23T10:20:13.924Z,16.57
2023-04-23T10:22:40.249Z,16.95
2023-04-23T10:25:06.477Z,16.79
2023-04-23T10:27:40.264Z,17.09
2023-04-23T10:30:10.749Z,17.03
2023-04-23T10:32:37.039Z,17.36
2023-04-23T10:35:03.361Z,17.15
2023-04-23T10:37:29.732Z,17.58
2023-04-23T10:39:55.987Z,17.39
2023-04-23T10:42:22.231Z,17.62
2023-04-23T10:44:57.963Z,17.95
2023-04-23T10:47:25.527Z,18.10
2023-04-23T10:49:51.802Z,18.09
2023-04-23T10:52:21.530Z,18.57
2023-04-23T10:54:49.221Z,18.76
2023-04-23T10:57:15.441Z,18.94
2023-04-23T10:59:41.992Z,18.46
2023-04-23T11:02:08.607Z,18.15
2023-04-23T11:04:35.328Z,17.98
2023-04-23T11:07:01.661Z,16.89
2023-04-23T11:09:27.927Z,17.48
2023-04-23T11:11:54.183Z,17.61
2023-04-23T11:14:20.416Z,17.86
2023-04-23T11:16:46.754Z,18.04
2023-04-23T11:19:13.164Z,17.96
2023-04-23T11:21:39.514Z,18.13
2023-04-23T11:24:05.775Z,18.49
2023-04-23T11:26:32.027Z,18.78
2023-04-23T11:28:58.280Z,18.98
2023-04-23T11:31:24.614Z,19.16
2023-04-23T11:33:50.945Z,19.45
2023-04-23T11:36:17.201Z,19.63
2023-04-23T11:38:43.446Z,19.90
2023-04-23T11:41:09.691Z,19.34
2023-04-23T11:43:35.955Z,19.51
2023-04-23T11:46:02.315Z,19.63
2023-04-23T11:48:28.580Z,19.78
2023-04-23T11:50:54.860Z,19.66
2023-04-23T11:53:21.181Z,19.79
2023-04-23T11:55:47.405Z,19.24
2023-04-23T11:58:13.817Z,19.40
2023-04-23T12:00:40.105Z,19.69
2023-04-23T12:03:06.597Z,19.80
2023-04-23T12:05:33.188Z,19.57
2023-04-23T12:07:59.512Z,19.34
2023-04-23T12:10:25.779Z,19.78
2023-04-23T12:12:52.051Z,19.04
2023-04-23T12:15:18.287Z,18.91
2023-04-23T12:17:44.586Z,19.35
2023-04-23T12:20:10.916Z,19.72
2023-04-23T12:22:37.223Z,19.47
2023-04-23T12:25:03.478Z,19.91
2023-04-23T12:27:29.721Z,20.10
2023-04-23T12:29:55.956Z,19.83
2023-04-23T12:32:22.261Z,20.21
2023-04-23T12:34:48.568Z,20.03
2023-04-23T12:37:14.815Z,20.31
2023-04-23T12:39:41.301Z,20.40
2023-04-23T12:42:07.796Z,20.02
2023-04-23T12:44:34.027Z,19.57
2023-04-23T12:47:00.305Z,19.68
2023-04-23T12:49:26.598Z,19.42
2023-04-23T12:51:52.879Z,18.88
2023-04-23T12:54:19.158Z,19.14
2023-04-23T12:56:45.463Z,18.87
2023-04-23T12:59:11.710Z,19.07
2023-04-23T13:01:37.984Z,19.48
2023-04-23T13:04:04.316Z,19.34
2023-04-23T13:06:30.660Z,19.65
2023-04-23T13:08:56.954Z,18.56
2023-04-23T13:11:23.262Z,18.19
2023-04-23T13:13:49.509Z,18.22
2023-04-23T13:16:15.774Z,18.43
2023-04-23T13:18:42.026Z,18.47
2023-04-23T13:21:08.275Z,18.24
2023-04-23T13:23:34.563Z,17.94
2023-04-23T13:26:02.502Z,18.31
2023-04-23T13:28:28.763Z,18.66
2023-04-23T13:30:55.037Z,18.54
2023-04-23T13:33:21.272Z,18.20
2023-04-23T13:35:47.514Z,18.61
2023-04-23T13:38:13.757Z,18.48
2023-04-23T13:40:40.008Z,18.59
2023-04-23T13:43:06.269Z,18.50
2023-04-23T13:45:32.523Z,18.52
2023-04-23T13:47:58.828Z,17.91
2023-04-23T13:50:25.109Z,18.46
2023-04-23T13:52:51.330Z,18.65
2023-04-23T13:55:17.563Z,18.45
2023-04-23T13:57:43.800Z,18.73
2023-04-23T14:00:10.055Z,18.60
2023-04-23T14:02:36.402Z,19.14
2023-04-23T14:05:02.773Z,18.83
2023-04-23T14:07:28.998Z,18.43
2023-04-23T14:09:55.257Z,18.29
2023-04-23T14:12:21.509Z,18.24
2023-04-23T14:14:47.774Z,18.24
2023-04-23T14:17:14.042Z,18.75
2023-04-23T14:19:40.525Z,18.43
2023-04-23T14:22:06.931Z,17.74
2023-04-23T14:24:33.235Z,17.40
2023-04-23T14:26:59.546Z,17.22
2023-04-23T14:29:25.811Z,17.21
2023-04-23T14:31:52.092Z,17.24
2023-04-23T14:34:18.364Z,17.09
2023-04-23T14:36:44.694Z,17.31
2023-04-23T14:39:11.007Z,17.02
2023-04-23T14:41:37.276Z,17.23
2023-04-23T14:44:03.554Z,17.17
2023-04-23T14:46:29.962Z,16.95
2023-04-23T14:48:56.231Z,16.69
2023-04-23T14:51:22.479Z,16.54
2023-04-23T14:53:50.735Z,16.31
2023-04-23T14:56:17.041Z,16.86
2023-04-23T14:58:43.366Z,17.26
2023-04-23T15:01:09.636Z,17.54
2023-04-23T15:03:36.129Z,17.73
2023-04-23T15:06:02.479Z,17.99
2023-04-23T15:08:28.727Z,18.11
2023-04-23T15:10:54.976Z,18.39
2023-04-23T15:13:21.194Z,18.58
2023-04-23T15:15:47.450Z,18.64
2023-04-23T15:18:13.740Z,18.95
2023-04-23T15:20:40.101Z,19.16
2023-04-23T15:23:06.352Z,19.10
2023-04-23T15:25:32.599Z,18.90
2023-04-23T15:27:58.904Z,18.88
2023-04-23T15:30:25.180Z,18.60
2023-04-23T15:32:51.562Z,18.51
2023-04-23T15:35:19.154Z,18.41
2023-04-23T15:37:45.389Z,18.08
2023-04-23T15:40:11.648Z,17.79
2023-04-23T15:42:37.890Z,17.41
2023-04-23T15:45:04.326Z,17.62
2023-04-23T15:47:30.659Z,17.68
2023-04-23T15:49:56.929Z,17.79
2023-04-23T15:52:23.212Z,17.64
2023-04-23T15:54:49.570Z,17.44
2023-04-23T15:57:15.849Z,17.35
2023-04-23T15:59:42.438Z,16.91
2023-04-23T16:02:08.998Z,16.95
2023-04-23T16:04:35.475Z,16.16
2023-04-23T16:07:01.891Z,16.00
2023-04-23T16:09:28.195Z,15.61
2023-04-23T16:11:54.524Z,15.65
2023-04-23T16:14:20.801Z,15.68
2023-04-23T16:16:47.096Z,15.82
2023-04-23T16:19:13.367Z,15.75
2023-04-23T16:21:39.679Z,15.61
2023-04-23T16:24:05.920Z,15.43
2023-04-23T16:26:32.152Z,15.74
2023-04-23T16:29:11.385Z,15.76
2023-04-23T16:31:44.636Z,15.98
2023-04-23T16:34:12.761Z,16.17
2023-04-23T16:36:39.020Z,16.17
2023-04-23T16:39:05.288Z,16.24
2023-04-23T16:41:31.531Z,16.25
2023-04-23T16:43:57.798Z,16.42
2023-04-23T16:46:24.117Z,16.08
2023-04-23T16:48:50.390Z,16.26
2023-04-23T16:51:16.671Z,16.05
2023-04-23T16:53:43.098Z,16.20
2023-04-23T16:56:12.117Z,16.21
2023-04-23T16:58:38.343Z,15.86
2023-04-23T17:01:04.589Z,15.56
2023-04-23T17:03:30.902Z,15.45
2023-04-23T17:05:57.173Z,15.29
2023-04-23T17:08:23.469Z,15.31
2023-04-23T17:10:49.710Z,14.79
2023-04-23T17:13:15.973Z,14.81
2023-04-23T17:15:42.238Z,14.44
2023-04-23T17:18:10.576Z,14.01
2023-04-23T17:20:37.515Z,13.70
2023-04-23T17:23:03.749Z,13.72
2023-04-23T17:25:30.042Z,13.95
2023-04-23T17:27:57.886Z,13.87
2023-04-23T17:30:24.411Z,14.11
2023-04-23T17:32:50.803Z,14.30
2023-04-23T17:35:17.073Z,14.45
2023-04-23T17:37:43.323Z,14.61
2023-04-23T17:40:09.568Z,14.09
2023-04-23T17:42:35.805Z,13.72
2023-04-23T17:45:02.106Z,13.64
2023-04-23T17:47:28.402Z,13.27
2023-04-23T17:49:54.786Z,12.97
2023-04-23T17:52:21.119Z,12.55
2023-04-23T17:54:47.382Z,12.08
2023-04-23T17:57:13.628Z,11.11
2023-04-23T17:59:40.072Z,10.81
2023-04-23T18:02:06.572Z,10.23
2023-04-23T18:04:33.208Z,9.66
2023-04-23T18:06:59.502Z,9.47
2023-04-23T18:09:25.750Z,9.35
2023-04-23T18:11:52.005Z,9.39
2023-04-23T18:14:20.455Z,9.55
2023-04-23T18:16:46.798Z,9.74
2023-04-23T18:19:15.398Z,9.88
2023-04-23T18:21:41.706Z,10.06
2023-04-23T18:24:07.954Z,10.22
2023-04-23T18:26:34.181Z,10.35
2023-04-23T18:29:00.419Z,10.43
2023-04-23T18:31:26.749Z,10.50
2023-04-23T18:33:53.902Z,10.52
2023-04-23T18:36:20.193Z,10.52
2023-04-23T18:38:46.443Z,10.53
2023-04-23T18:41:12.746Z,10.55
2023-04-23T18:43:39.103Z,10.52
2023-04-23T18:46:05.403Z,10.58
2023-04-23T18:48:31.721Z,10.49
2023-04-23T18:50:57.958Z,10.55
2023-04-23T18:53:24.189Z,10.60
2023-04-23T18:55:50.420Z,10.60
2023-04-23T18:58:16.665Z,10.41
2023-04-23T19:00:42.887Z,10.20
2023-04-23T19:03:23.769Z,10.23
2023-04-23T19:05:52.944Z,9.67
2023-04-23T19:08:19.189Z,9.81
2023-04-23T19:10:45.435Z,9.91
2023-04-23T19:13:11.700Z,9.89
2023-04-23T19:15:38.015Z,9.96
2023-04-23T19:18:04.345Z,10.11
2023-04-23T19:20:30.611Z,10.18
2023-04-23T19:22:56.849Z,10.02
2023-04-23T19:25:23.091Z,10.06
2023-04-23T19:27:49.356Z,10.14
2023-04-23T19:30:15.602Z,10.16
2023-04-23T19:32:41.852Z,10.26
2023-04-23T19:35:08.093Z,10.33
2023-04-23T19:37:34.358Z,10.27
2023-04-23T19:40:00.600Z,10.30
2023-04-23T19:42:26.848Z,10.30
2023-04-23T19:44:55.313Z,10.32
2023-04-23T19:47:21.579Z,10.36
2023-04-23T19:49:47.856Z,10.21
2023-04-23T19:52:14.119Z,10.19
2023-04-23T19:54:40.350Z,10.08
2023-04-23T19:57:06.611Z,10.04
2023-04-23T19:59:32.866Z,10.04
2023-04-23T20:01:59.103Z,10.08
2023-04-23T20:04:25.510Z,10.00
2023-04-23T20:06:51.850Z,9.94
2023-04-23T20:09:18.418Z,9.99
2023-04-23T20:11:44.805Z,10.03
2023-04-23T20:14:11.085Z,9.96
2023-04-23T20:16:37.400Z,10.04
2023-04-23T20:19:03.670Z,10.05
2023-04-23T20:21:29.906Z,9.99
2023-04-23T20:23:56.140Z,9.96
2023-04-23T20:26:22.373Z,9.88
2023-04-23T20:28:48.612Z,9.74
2023-04-23T20:31:14.838Z,9.70
2023-04-23T20:33:41.089Z,9.73
2023-04-23T20:36:07.328Z,9.70
2023-04-23T20:38:33.547Z,9.82
2023-04-23T20:40:59.782Z,9.87
2023-04-23T20:43:26.023Z,9.88
2023-04-23T20:45:52.292Z,9.85
2023-04-23T20:48:18.545Z,9.86
2023-04-23T20:50:44.779Z,9.78
2023-04-23T20:53:11.015Z,9.82
2023-04-23T20:55:37.262Z,9.73
2023-04-23T20:58:03.491Z,9.62
2023-04-23T21:00:29.834Z,9.54
2023-04-23T21:02:56.176Z,9.60
2023-04-23T21:05:22.512Z,9.72
2023-04-23T21:07:48.739Z,9.83
2023-04-23T21:10:14.968Z,9.76
2023-04-23T21:12:41.220Z,9.81
2023-04-23T21:15:07.462Z,9.89
2023-04-23T21:17:33.774Z,9.95
2023-04-23T21:20:00.064Z,9.98
2023-04-23T21:22:26.310Z,9.97
2023-04-23T21:24:52.550Z,9.96
2023-04-23T21:27:18.790Z,9.96
2023-04-23T21:29:45.009Z,10.01
2023-04-23T21:32:11.304Z,10.01
2023-04-23T21:34:37.569Z,9.98
2023-04-23T21:37:03.810Z,9.74
2023-04-23T21:39:30.259Z,9.59
2023-04-23T21:41:56.535Z,9.47
2023-04-23T21:44:22.781Z,9.62
2023-04-23T21:46:49.079Z,9.66
2023-04-23T21:49:15.323Z,9.65
2023-04-23T21:51:41.550Z,9.62
2023-04-23T21:54:07.800Z,9.65
2023-04-23T21:56:34.083Z,9.68
2023-04-23T21:59:00.365Z,9.72
2023-04-23T22:01:26.704Z,9.48
2023-04-23T22:03:53.120Z,9.01
2023-04-23T22:06:19.787Z,8.96
2023-04-23T22:08:46.039Z,8.92
2023-04-23T22:11:12.318Z,8.88
2023-04-23T22:13:38.566Z,8.88
2023-04-23T22:16:10.741Z,8.91
2023-04-23T22:18:42.971Z,8.83
2023-04-23T22:21:09.193Z,8.83
2023-04-23T22:23:35.435Z,8.91
2023-04-23T22:26:01.695Z,8.97
2023-04-23T22:28:27.902Z,8.92
2023-04-23T22:30:54.133Z,8.89
2023-04-23T22:33:20.384Z,8.91
2023-04-23T22:35:46.632Z,8.94
2023-04-23T22:38:12.867Z,8.90
2023-04-23T22:40:39.103Z,8.89
2023-04-23T22:43:05.346Z,8.72
2023-04-23T22:45:31.615Z,8.79
2023-04-23T22:47:57.948Z,8.80
2023-04-23T22:50:24.279Z,8.83
2023-04-23T22:52:50.507Z,8.77
2023-04-23T22:55:16.783Z,8.79
2023-04-23T22:57:43.011Z,8.73
2023-04-23T23:00:09.268Z,8.74
2023-04-23T23:02:35.616Z,8.70
2023-04-23T23:05:01.945Z,8.67
2023-04-23T23:07:28.188Z,8.72
2023-04-23T23:09:54.454Z,8.70
2023-04-23T23:12:20.730Z,8.74
2023-04-23T23:14:46.975Z,8.74
2023-04-23T23:17:13.228Z,8.79
2023-04-23T23:19:39.544Z,8.84
2023-04-23T23:22:05.855Z,8.85
2023-04-23T23:24:32.203Z,8.89
2023-04-23T23:26:58.463Z,8.92
2023-04-23T23:29:24.730Z,8.99
2023-04-23T23:31:51.290Z,8.94
2023-04-23T23:34:17.612Z,8.84
2023-04-23T23:36:43.868Z,8.23
2023-04-23T23:39:10.104Z,8.13
2023-04-23T23:41:36.346Z,8.07
2023-04-23T23:44:02.609Z,8.17
2023-04-23T23:46:28.844Z,8.17
2023-04-23T23:48:55.118Z,8.08
2023-04-23T23:51:21.351Z,7.72
2023-04-23T23:53:47.645Z,7.86
2023-04-23T23:56:13.881Z,8.14
2023-04-23T23:58:40.170Z,8.34
